Time;durP1;ratioP1;P1;durP2;ratioP2;P2;SDS_P1;SDS_P2;PMS_P1;PMS_P2;Temp;Humidity;BMP_temperature;BMP_pressure;BME280_temperature;BME280_humidity;BME280_pressure;Samples;Min_cycle;Max_cycle;Signal;HPM_P1;HPM_P2
2023/01/19 00:01:17;;;;;;;9.95;5.70;;;4.30;99.90;;;;;;4945069;28;20030;-87
2023/01/19 00:03:43;;;;;;;11.37;5.63;;;4.30;99.90;;;;;;4941934;28;20249;-87
2023/01/19 00:06:09;;;;;;;9.75;5.55;;;4.30;99.90;;;;;;4954005;28;20057;-87
2023/01/19 00:08:35;;;;;;;10.05;5.22;;;4.30;99.90;;;;;;4957254;28;20196;-86
2023/01/19 00:11:01;;;;;;;9.70;5.20;;;4.30;99.90;;;;;;4969494;28;20029;-87
2023/01/19 00:13:27;;;;;;;9.95;5.28;;;4.20;99.90;;;;;;4965039;28;20027;-87
2023/01/19 00:15:53;;;;;;;11.23;6.03;;;4.20;99.90;;;;;;4941027;28;20388;-87
2023/01/19 00:18:19;;;;;;;11.53;5.63;;;4.20;99.90;;;;;;4939704;28;20031;-87
2023/01/19 00:20:45;;;;;;;11.30;5.60;;;4.30;99.90;;;;;;4919825;28;20234;-87
2023/01/19 00:23:12;;;;;;;9.85;5.50;;;4.30;99.90;;;;;;4942460;28;20313;-87
2023/01/19 00:25:42;;;;;;;14.03;6.60;;;4.30;99.90;;;;;;4956809;28;20034;-87
2023/01/19 00:28:12;;;;;;;10.38;5.57;;;4.30;99.90;;;;;;4929081;28;20023;-87
2023/01/19 00:30:39;;;;;;;11.25;5.82;;;4.30;99.90;;;;;;4950601;28;20163;-87
2023/01/19 00:33:05;;;;;;;12.00;6.13;;;4.30;99.90;;;;;;4962868;28;20037;-88
2023/01/19 00:35:31;;;;;;;8.02;4.80;;;4.20;99.90;;;;;;4940461;28;20038;-87
2023/01/19 00:37:57;;;;;;;8.10;4.43;;;4.20;99.90;;;;;;4935858;28;20454;-86
2023/01/19 00:40:23;;;;;;;9.15;5.25;;;4.20;99.90;;;;;;4939175;28;20038;-86
2023/01/19 00:42:49;;;;;;;9.05;4.88;;;4.20;99.90;;;;;;4950557;28;20502;-86
2023/01/19 00:45:18;;;;;;;9.97;5.67;;;4.20;99.90;;;;;;4936615;28;20399;-86
2023/01/19 00:47:45;;;;;;;8.85;4.90;;;4.10;99.90;;;;;;4932835;28;20114;-87
2023/01/19 00:50:12;;;;;;;9.98;5.15;;;4.10;99.90;;;;;;4944208;28;20194;-87
2023/01/19 00:52:39;;;;;;;9.88;5.13;;;4.10;99.90;;;;;;4929651;28;21684;-87
2023/01/19 00:55:07;;;;;;;9.68;5.03;;;4.10;99.90;;;;;;4961907;28;20387;-87
2023/01/19 00:57:33;;;;;;;8.80;5.23;;;4.10;99.90;;;;;;4962507;28;20558;-87
2023/01/19 00:59:59;;;;;;;7.80;4.38;;;4.10;99.90;;;;;;4936027;28;20454;-87
2023/01/19 01:02:25;;;;;;;10.40;5.38;;;4.10;99.90;;;;;;4941986;28;20050;-87
2023/01/19 01:04:55;;;;;;;8.95;4.85;;;4.00;99.90;;;;;;4940016;28;20132;-87
2023/01/19 01:07:22;;;;;;;9.00;4.60;;;4.00;99.90;;;;;;4938032;28;20049;-87
2023/01/19 01:09:47;;;;;;;8.35;4.70;;;4.00;99.90;;;;;;4919457;28;20273;-87
2023/01/19 01:12:13;;;;;;;9.35;4.57;;;4.00;99.90;;;;;;4939519;28;20089;-86
2023/01/19 01:14:39;;;;;;;8.53;4.00;;;3.90;99.90;;;;;;4921569;28;20226;-86
2023/01/19 01:17:05;;;;;;;8.43;4.57;;;4.00;99.90;;;;;;4939116;28;20129;-86
2023/01/19 01:19:31;;;;;;;7.37;4.47;;;4.00;99.90;;;;;;4937881;28;20150;-87
2023/01/19 01:21:56;;;;;;;8.88;4.35;;;3.90;99.90;;;;;;4943193;28;20049;-86
2023/01/19 01:24:22;;;;;;;7.55;4.15;;;3.90;99.90;;;;;;4914763;28;20065;-86
2023/01/19 01:26:48;;;;;;;8.53;4.43;;;3.90;99.90;;;;;;4910359;28;20117;-87
2023/01/19 01:29:14;;;;;;;9.43;4.70;;;3.90;99.90;;;;;;4912240;28;20046;-87
2023/01/19 01:31:40;;;;;;;8.70;4.90;;;3.90;99.90;;;;;;4937764;28;20038;-87
2023/01/19 01:34:06;;;;;;;9.10;4.82;;;3.90;99.90;;;;;;4938476;28;20027;-86
2023/01/19 01:36:32;;;;;;;10.10;4.65;;;3.80;99.90;;;;;;4941450;28;20365;-87
2023/01/19 01:38:59;;;;;;;9.00;5.00;;;3.90;99.90;;;;;;4949774;28;20619;-86
2023/01/19 01:41:26;;;;;;;9.20;4.90;;;3.90;99.90;;;;;;4926285;28;20093;-87
2023/01/19 01:43:57;;;;;;;9.95;5.00;;;3.80;99.90;;;;;;4924508;28;20039;-87
2023/01/19 01:46:24;;;;;;;9.38;4.82;;;3.90;99.90;;;;;;4924468;28;20298;-86
2023/01/19 01:49:04;;;;;;;9.77;5.07;;;3.80;99.90;;;;;;4925693;28;20517;-88
2023/01/19 01:51:35;;;;;;;10.48;5.60;;;3.80;99.90;;;;;;4956583;28;20045;-87
2023/01/19 01:54:13;;;;;;;8.93;5.13;;;3.80;99.90;;;;;;4908483;28;20089;-86
2023/01/19 01:56:47;;;;;;;9.90;4.97;;;3.80;99.90;;;;;;4938732;28;20133;-87
2023/01/19 01:59:25;;;;;;;9.73;5.07;;;3.80;99.90;;;;;;4934613;28;20038;-87
2023/01/19 02:05:02;;;;;;;8.85;5.10;;;3.80;99.90;;;;;;4908838;28;20050;-89
2023/01/19 02:13:22;;;;;;;10.40;4.93;;;3.80;99.90;;;;;;4972154;28;20027;-89
2023/01/19 02:15:56;;;;;;;9.75;4.95;;;3.80;99.90;;;;;;4955874;28;20088;-89
2023/01/19 02:18:26;;;;;;;9.63;4.90;;;3.70;99.90;;;;;;4926260;28;20026;-89
2023/01/19 02:21:10;;;;;;;9.00;5.03;;;3.70;99.90;;;;;;4950981;28;20049;-89
2023/01/19 02:23:45;;;;;;;10.98;5.45;;;3.70;99.90;;;;;;4974041;28;20026;-90
2023/01/19 02:26:18;;;;;;;9.07;4.80;;;3.80;99.90;;;;;;4947901;28;20358;-89
2023/01/19 02:29:00;;;;;;;11.25;4.95;;;3.80;99.90;;;;;;4965990;28;20541;-89
2023/01/19 02:31:29;;;;;;;9.55;4.85;;;3.70;99.90;;;;;;4970206;28;20061;-88
2023/01/19 02:33:55;;;;;;;10.07;5.20;;;3.80;99.90;;;;;;4933491;28;20076;-89
2023/01/19 02:36:33;;;;;;;9.93;4.88;;;3.70;99.90;;;;;;4938291;28;20506;-88
2023/01/19 02:39:01;;;;;;;9.77;5.32;;;3.80;99.90;;;;;;4944292;28;20034;-87
2023/01/19 02:41:31;;;;;;;9.52;5.13;;;3.80;99.90;;;;;;4933797;28;20929;-89
2023/01/19 02:43:58;;;;;;;8.88;4.32;;;3.80;99.90;;;;;;4976297;28;20027;-88
2023/01/19 02:46:24;;;;;;;8.97;4.70;;;3.80;99.90;;;;;;4940100;28;20248;-91
2023/01/19 02:48:50;;;;;;;8.75;4.60;;;3.80;99.90;;;;;;4946373;28;20029;-91
2023/01/19 02:51:19;;;;;;;9.02;4.57;;;3.80;99.90;;;;;;4970986;28;20014;-90
2023/01/19 02:54:03;;;;;;;7.90;4.25;;;3.90;99.90;;;;;;4960242;28;20038;-89
2023/01/19 02:56:32;;;;;;;7.97;4.40;;;3.90;99.90;;;;;;4919722;28;20300;-91
2023/01/19 02:59:01;;;;;;;9.77;4.07;;;3.90;99.90;;;;;;4979939;28;20030;-90
2023/01/19 03:01:48;;;;;;;6.47;3.50;;;3.90;99.90;;;;;;4951086;28;20124;-90
2023/01/19 03:04:22;;;;;;;8.10;3.70;;;4.00;99.90;;;;;;4947586;28;20054;-90
2023/01/19 03:07:01;;;;;;;9.07;3.65;;;4.00;99.90;;;;;;4944767;28;20426;-88
2023/01/19 03:09:29;;;;;;;6.43;3.10;;;4.00;99.90;;;;;;4954434;28;20635;-88
2023/01/19 03:12:36;;;;;;;7.20;3.13;;;4.10;99.90;;;;;;4968976;28;20057;-88
2023/01/19 03:15:16;;;;;;;5.53;3.08;;;4.10;99.90;;;;;;4968942;28;20034;-87
2023/01/19 03:17:43;;;;;;;5.60;3.08;;;4.20;99.90;;;;;;4959182;28;20112;-87
2023/01/19 03:20:12;;;;;;;4.97;2.80;;;4.20;99.90;;;;;;4928448;28;20022;-88
2023/01/19 03:22:38;;;;;;;7.83;3.40;;;4.20;99.90;;;;;;4961693;28;20026;-88
2023/01/19 03:25:05;;;;;;;5.93;3.20;;;4.30;99.90;;;;;;4943111;28;20577;-90
2023/01/19 03:27:39;;;;;;;6.43;3.10;;;4.20;99.90;;;;;;4961243;28;20022;-88
2023/01/19 03:30:17;;;;;;;7.18;3.10;;;4.20;99.90;;;;;;4936776;28;20660;-90
2023/01/19 03:32:54;;;;;;;6.40;3.00;;;4.20;99.90;;;;;;4963158;28;20048;-89
2023/01/19 03:35:23;;;;;;;8.77;4.28;;;4.20;99.90;;;;;;4950294;28;20041;-88
2023/01/19 03:37:53;;;;;;;7.70;4.28;;;4.10;99.90;;;;;;4945025;28;20440;-89
2023/01/19 03:40:20;;;;;;;6.70;3.67;;;4.10;99.90;;;;;;4958520;28;20272;-89
2023/01/19 03:42:48;;;;;;;8.85;4.22;;;4.00;99.90;;;;;;4961209;28;20027;-88
2023/01/19 03:45:14;;;;;;;7.43;3.80;;;4.00;99.90;;;;;;4935364;28;20027;-88
2023/01/19 03:47:41;;;;;;;10.25;4.72;;;4.00;99.90;;;;;;4962158;28;20142;-87
2023/01/19 03:50:13;;;;;;;9.73;4.60;;;3.90;99.90;;;;;;4946674;28;20669;-86
2023/01/19 03:52:39;;;;;;;7.80;3.45;;;3.90;99.90;;;;;;4967596;28;20037;-87
2023/01/19 03:55:05;;;;;;;7.73;4.07;;;3.90;99.90;;;;;;4944313;28;20415;-86
2023/01/19 03:57:31;;;;;;;9.50;4.22;;;3.90;99.90;;;;;;4960715;28;20030;-86
2023/01/19 03:59:57;;;;;;;8.88;4.35;;;3.90;99.90;;;;;;4915922;28;20474;-86
2023/01/19 04:02:23;;;;;;;9.23;4.17;;;3.80;99.90;;;;;;4946057;28;20152;-86
2023/01/19 04:04:49;;;;;;;8.90;4.50;;;3.80;99.90;;;;;;4942251;28;20928;-87
2023/01/19 04:07:15;;;;;;;10.45;5.03;;;3.80;99.90;;;;;;4933756;28;20077;-87
2023/01/19 04:09:41;;;;;;;7.70;4.07;;;3.80;99.90;;;;;;4944043;28;20026;-86
2023/01/19 04:12:07;;;;;;;7.97;4.40;;;3.80;99.90;;;;;;4960507;28;20015;-87
2023/01/19 04:14:33;;;;;;;7.28;4.07;;;3.80;99.90;;;;;;4955802;28;20034;-87
2023/01/19 04:16:59;;;;;;;8.20;4.17;;;3.80;99.90;;;;;;4933993;28;20084;-87
2023/01/19 04:19:25;;;;;;;10.45;4.70;;;3.80;99.90;;;;;;4942719;28;20033;-87
2023/01/19 04:21:50;;;;;;;9.17;4.70;;;3.70;99.90;;;;;;4931972;28;20041;-86
2023/01/19 04:24:17;;;;;;;10.05;4.82;;;3.70;99.90;;;;;;4974728;28;20030;-87
2023/01/19 04:26:43;;;;;;;9.68;4.70;;;3.70;99.90;;;;;;4958786;28;20030;-87
2023/01/19 04:29:09;;;;;;;9.57;4.67;;;3.70;99.90;;;;;;4941151;28;20305;-86
2023/01/19 04:31:35;;;;;;;10.57;5.30;;;3.70;99.90;;;;;;4949255;28;20041;-86
2023/01/19 04:34:02;;;;;;;9.40;4.93;;;3.70;99.90;;;;;;4958072;28;20664;-86
2023/01/19 04:36:28;;;;;;;9.20;4.60;;;3.70;99.90;;;;;;4958916;28;20030;-86
2023/01/19 04:38:54;;;;;;;8.47;4.20;;;3.70;99.90;;;;;;4950514;28;20030;-86
2023/01/19 04:41:19;;;;;;;10.30;4.77;;;3.70;99.90;;;;;;4979085;28;20027;-86
2023/01/19 04:43:46;;;;;;;11.07;5.20;;;3.70;99.90;;;;;;4957794;28;20851;-87
2023/01/19 04:46:13;;;;;;;9.23;5.30;;;3.70;99.90;;;;;;4938087;28;20213;-87
2023/01/19 04:48:39;;;;;;;11.85;6.03;;;3.70;99.90;;;;;;4945243;28;20069;-87
2023/01/19 04:51:05;;;;;;;10.53;4.90;;;3.70;99.90;;;;;;4938758;28;20701;-86
2023/01/19 04:53:31;;;;;;;8.43;4.65;;;3.70;99.90;;;;;;4950916;28;20361;-87
2023/01/19 04:55:59;;;;;;;8.45;4.63;;;3.70;99.90;;;;;;4939098;28;20842;-87
2023/01/19 04:58:25;;;;;;;11.00;5.33;;;3.70;99.90;;;;;;4944524;28;20061;-86
2023/01/19 05:00:51;;;;;;;10.05;5.20;;;3.70;99.90;;;;;;4955722;28;20471;-87
2023/01/19 05:03:18;;;;;;;9.80;5.20;;;3.70;99.90;;;;;;4916912;28;20045;-86
2023/01/19 05:05:44;;;;;;;9.20;5.10;;;3.70;99.90;;;;;;4935447;28;20419;-86
2023/01/19 05:08:11;;;;;;;10.67;5.20;;;3.70;99.90;;;;;;4942743;28;20470;-87
2023/01/19 05:10:36;;;;;;;10.75;5.05;;;3.70;99.90;;;;;;4933455;28;20585;-87
2023/01/19 05:13:03;;;;;;;10.57;5.20;;;3.70;99.90;;;;;;4958444;28;20426;-87
2023/01/19 05:15:28;;;;;;;11.02;5.20;;;3.70;99.90;;;;;;4940902;28;20043;-87
2023/01/19 05:17:56;;;;;;;9.37;4.70;;;3.70;99.90;;;;;;4933324;28;20099;-87
2023/01/19 05:20:23;;;;;;;7.45;4.20;;;3.70;99.90;;;;;;4977115;28;20561;-87
2023/01/19 05:22:50;;;;;;;9.02;4.50;;;3.70;99.90;;;;;;4956677;28;20034;-87
2023/01/19 05:25:17;;;;;;;10.00;4.70;;;3.70;99.90;;;;;;4933988;28;20084;-87
2023/01/19 05:27:43;;;;;;;9.73;4.70;;;3.70;99.90;;;;;;4952072;28;20041;-87
2023/01/19 05:30:10;;;;;;;10.60;5.55;;;3.70;99.90;;;;;;4957392;28;20201;-87
2023/01/19 05:32:36;;;;;;;9.70;5.03;;;3.70;99.90;;;;;;4968295;28;20460;-88
2023/01/19 05:35:01;;;;;;;8.70;4.33;;;3.70;99.90;;;;;;4920016;28;20056;-87
2023/01/19 05:37:27;;;;;;;12.50;5.25;;;3.70;99.90;;;;;;4940328;28;20040;-88
2023/01/19 05:39:53;;;;;;;10.80;5.50;;;3.70;99.90;;;;;;4924776;28;20026;-88
2023/01/19 05:42:19;;;;;;;11.75;5.40;;;3.70;99.90;;;;;;4956108;28;20084;-87
2023/01/19 05:44:45;;;;;;;8.77;4.78;;;3.60;99.90;;;;;;4956522;28;20030;-87
2023/01/19 05:47:11;;;;;;;11.53;5.50;;;3.60;99.90;;;;;;4968466;28;20018;-87
2023/01/19 05:49:37;;;;;;;16.58;7.43;;;3.60;99.90;;;;;;4927890;28;20025;-88
2023/01/19 05:52:02;;;;;;;12.65;6.00;;;3.60;99.90;;;;;;4943674;28;20049;-88
2023/01/19 05:54:28;;;;;;;11.27;5.80;;;3.60;99.90;;;;;;4938617;28;20037;-88
2023/01/19 05:56:54;;;;;;;11.83;5.70;;;3.60;99.90;;;;;;4941562;28;20291;-88
2023/01/19 05:59:22;;;;;;;11.82;6.10;;;3.60;99.90;;;;;;4956819;28;20383;-87
2023/01/19 06:01:50;;;;;;;13.48;6.60;;;3.60;99.90;;;;;;4942832;28;20823;-88
2023/01/19 06:04:16;;;;;;;13.00;5.90;;;3.50;99.90;;;;;;4912173;28;20022;-88
2023/01/19 06:06:42;;;;;;;11.68;5.90;;;3.50;99.90;;;;;;4936815;28;20092;-89
2023/01/19 06:09:07;;;;;;;14.88;6.10;;;3.50;99.90;;;;;;4968278;28;20324;-89
2023/01/19 06:11:33;;;;;;;13.00;6.10;;;3.50;99.90;;;;;;4931600;28;20026;-88
2023/01/19 06:13:59;;;;;;;13.95;6.03;;;3.50;99.90;;;;;;4952748;28;20928;-88
2023/01/19 06:16:25;;;;;;;13.70;6.43;;;3.50;99.90;;;;;;4940119;28;20463;-88
2023/01/19 06:18:50;;;;;;;12.85;6.32;;;3.40;99.90;;;;;;4937488;28;20034;-87
2023/01/19 06:21:16;;;;;;;14.40;7.07;;;3.40;99.90;;;;;;4918883;28;20109;-88
2023/01/19 06:23:42;;;;;;;15.65;6.72;;;3.40;99.90;;;;;;4929158;28;20109;-89
2023/01/19 06:26:07;;;;;;;15.07;6.50;;;3.40;99.90;;;;;;4948837;28;20026;-88
2023/01/19 06:28:33;;;;;;;16.45;7.45;;;3.40;99.90;;;;;;4946732;28;20026;-88
2023/01/19 06:30:59;;;;;;;16.10;7.77;;;3.40;99.90;;;;;;4942890;28;20264;-88
2023/01/19 06:33:26;;;;;;;13.30;6.63;;;3.40;99.90;;;;;;4959533;28;20014;-88
2023/01/19 06:35:52;;;;;;;14.20;6.43;;;3.40;99.90;;;;;;4920465;28;21145;-88
2023/01/19 06:38:18;;;;;;;12.17;6.43;;;3.40;99.90;;;;;;4932763;28;20117;-88
2023/01/19 06:40:45;;;;;;;16.55;7.72;;;3.30;99.90;;;;;;4954211;28;20026;-90
2023/01/19 06:43:11;;;;;;;16.02;7.70;;;3.30;99.90;;;;;;4943774;28;20088;-89
2023/01/19 06:45:38;;;;;;;12.55;6.35;;;3.30;99.90;;;;;;4978420;28;20026;-88
2023/01/19 06:48:04;;;;;;;14.15;6.10;;;3.30;99.90;;;;;;4961847;28;20273;-88
2023/01/19 06:50:30;;;;;;;12.67;6.13;;;3.30;99.90;;;;;;4962997;28;20084;-88
2023/01/19 06:52:56;;;;;;;15.60;6.57;;;3.30;99.90;;;;;;4938453;28;20030;-88
2023/01/19 06:55:22;;;;;;;13.23;6.35;;;3.30;99.90;;;;;;4963797;28;20030;-88
2023/01/19 06:57:55;;;;;;;11.18;5.40;;;3.30;99.90;;;;;;4936135;28;20041;-88
2023/01/19 07:00:23;;;;;;;15.17;6.00;;;3.30;99.90;;;;;;4959341;28;20046;-88
2023/01/19 07:02:48;;;;;;;15.45;7.10;;;3.20;99.90;;;;;;4958786;28;20394;-88
2023/01/19 07:05:14;;;;;;;14.48;6.25;;;3.20;99.90;;;;;;4959811;28;20023;-88
2023/01/19 07:07:41;;;;;;;16.00;5.67;;;3.30;99.90;;;;;;4938433;28;20026;-88
2023/01/19 07:10:14;;;;;;;11.70;5.80;;;3.20;99.90;;;;;;4939461;28;20250;-91
2023/01/19 07:12:40;;;;;;;10.93;4.90;;;3.20;99.90;;;;;;4944640;28;20037;-91
2023/01/19 07:15:06;;;;;;;14.13;5.78;;;3.20;99.90;;;;;;4938047;28;20244;-90
2023/01/19 07:17:32;;;;;;;10.67;5.20;;;3.20;99.90;;;;;;4943026;28;20426;-91
2023/01/19 07:19:59;;;;;;;12.32;5.75;;;3.20;99.90;;;;;;4937983;28;20367;-90
2023/01/19 07:22:24;;;;;;;13.00;6.18;;;3.20;99.90;;;;;;4949708;28;20434;-91
2023/01/19 07:24:50;;;;;;;12.97;5.80;;;3.20;99.90;;;;;;4923630;28;20943;-90
2023/01/19 07:27:16;;;;;;;13.82;6.35;;;3.10;99.90;;;;;;4944166;28;20483;-90
2023/01/19 07:29:42;;;;;;;13.33;6.20;;;3.20;99.90;;;;;;4944152;28;20476;-91
2023/01/19 07:32:08;;;;;;;12.13;5.60;;;3.10;99.90;;;;;;4963563;28;20491;-91
2023/01/19 07:34:34;;;;;;;15.07;5.85;;;3.20;99.90;;;;;;4946148;28;20837;-90
2023/01/19 07:37:00;;;;;;;14.03;5.97;;;3.20;99.90;;;;;;4950432;28;20480;-90
2023/01/19 07:39:26;;;;;;;15.48;6.85;;;3.20;99.90;;;;;;4960293;28;20121;-90
2023/01/19 07:41:52;;;;;;;11.35;5.57;;;3.20;99.90;;;;;;4954013;28;20351;-90
2023/01/19 07:44:18;;;;;;;13.40;6.17;;;3.20;99.90;;;;;;4930555;28;20124;-90
2023/01/19 07:46:43;;;;;;;11.73;5.07;;;3.20;99.90;;;;;;4957808;28;20056;-90
2023/01/19 07:49:10;;;;;;;19.38;6.35;;;3.20;99.90;;;;;;4934788;28;20018;-90
2023/01/19 07:51:36;;;;;;;13.32;5.78;;;3.20;99.90;;;;;;4956627;28;20037;-91
2023/01/19 07:54:01;;;;;;;14.83;6.40;;;3.20;99.90;;;;;;4938264;28;20038;-90
2023/01/19 07:56:29;;;;;;;15.38;6.45;;;3.20;99.90;;;;;;4941533;28;20169;-90
2023/01/19 07:58:55;;;;;;;13.53;6.03;;;3.20;99.90;;;;;;4939008;28;22467;-91
2023/01/19 08:01:22;;;;;;;12.82;5.10;;;3.20;99.90;;;;;;4947306;28;20067;-92
2023/01/19 08:03:48;;;;;;;12.50;5.55;;;3.30;99.90;;;;;;4938646;28;20038;-91
2023/01/19 08:06:25;;;;;;;12.20;5.00;;;3.30;99.90;;;;;;4950579;28;20560;-91
2023/01/19 08:08:50;;;;;;;21.80;7.63;;;3.30;99.90;;;;;;4926756;28;20468;-91
2023/01/19 08:11:16;;;;;;;19.83;6.95;;;3.30;99.90;;;;;;4958476;28;20101;-91
2023/01/19 08:13:42;;;;;;;15.47;6.17;;;3.30;99.90;;;;;;4934840;28;20632;-90
2023/01/19 08:16:08;;;;;;;18.42;6.78;;;3.30;99.90;;;;;;4952749;28;20054;-90
2023/01/19 08:18:34;;;;;;;20.50;7.93;;;3.30;99.90;;;;;;4969727;28;20031;-90
2023/01/19 08:21:00;;;;;;;13.60;6.40;;;3.40;99.90;;;;;;4928891;28;20101;-89
2023/01/19 08:23:26;;;;;;;13.95;6.03;;;3.40;99.90;;;;;;4949764;28;20023;-88
2023/01/19 08:25:52;;;;;;;13.13;5.78;;;3.40;99.90;;;;;;4925054;28;20411;-88
2023/01/19 08:28:19;;;;;;;12.88;6.05;;;3.40;99.90;;;;;;4943571;28;20018;-87
2023/01/19 08:30:52;;;;;;;12.77;5.40;;;3.50;99.90;;;;;;4949528;28;20046;-88
2023/01/19 08:33:19;;;;;;;12.73;6.18;;;3.50;99.90;;;;;;4937447;28;20065;-88
2023/01/19 08:35:48;;;;;;;13.13;5.80;;;3.50;99.90;;;;;;4923599;28;21226;-88
2023/01/19 08:38:14;;;;;;;12.68;5.70;;;3.60;99.90;;;;;;4939707;28;20034;-88
2023/01/19 08:40:40;;;;;;;10.70;5.25;;;3.70;99.90;;;;;;4912351;28;20150;-87
2023/01/19 08:43:10;;;;;;;13.17;5.60;;;3.70;99.90;;;;;;4956938;28;20438;-88
2023/01/19 08:45:37;;;;;;;14.70;6.25;;;3.80;99.90;;;;;;4955379;28;20430;-89
2023/01/19 08:48:05;;;;;;;13.00;5.88;;;3.90;99.90;;;;;;4973462;28;20014;-88
2023/01/19 08:50:32;;;;;;;13.65;6.07;;;4.00;99.90;;;;;;4956156;28;20137;-89
2023/01/19 08:52:59;;;;;;;13.40;6.50;;;4.00;99.90;;;;;;4942155;28;20052;-88
2023/01/19 08:55:25;;;;;;;12.27;5.80;;;4.10;99.90;;;;;;4947020;28;20125;-87
2023/01/19 08:57:53;;;;;;;14.75;6.57;;;4.10;99.90;;;;;;4916874;28;20026;-88
2023/01/19 09:00:19;;;;;;;14.65;6.82;;;4.20;99.90;;;;;;4954484;28;20018;-89
2023/01/19 09:02:45;;;;;;;12.38;6.40;;;4.20;99.90;;;;;;4953108;28;20026;-88
2023/01/19 09:05:11;;;;;;;12.20;5.68;;;4.20;99.90;;;;;;4954111;28;20066;-89
2023/01/19 09:07:37;;;;;;;12.97;6.30;;;4.30;99.90;;;;;;4941124;28;20093;-88
2023/01/19 09:10:07;;;;;;;13.63;5.85;;;4.40;99.90;;;;;;4958081;28;20023;-90
2023/01/19 09:12:32;;;;;;;10.63;5.30;;;4.40;99.90;;;;;;4917170;28;20022;-88
2023/01/19 09:14:58;;;;;;;13.17;6.17;;;4.40;99.90;;;;;;4942082;28;20560;-90
2023/01/19 09:17:24;;;;;;;15.38;7.07;;;4.40;99.90;;;;;;4934347;28;20037;-88
2023/01/19 09:19:50;;;;;;;15.53;6.27;;;4.50;99.90;;;;;;4969194;28;20213;-88
2023/01/19 09:22:15;;;;;;;15.32;6.60;;;4.50;99.90;;;;;;4928752;28;20596;-89
2023/01/19 09:24:41;;;;;;;11.37;5.93;;;4.50;99.90;;;;;;4938092;28;20034;-88
2023/01/19 09:27:07;;;;;;;13.10;5.70;;;4.50;99.90;;;;;;4916767;28;20085;-88
2023/01/19 09:29:33;;;;;;;12.83;6.20;;;4.50;99.90;;;;;;4956759;28;20465;-88
2023/01/19 09:31:59;;;;;;;15.35;6.47;;;4.50;99.90;;;;;;4952932;28;20635;-88
2023/01/19 09:34:25;;;;;;;13.27;6.10;;;4.50;99.90;;;;;;4955713;28;20653;-88
2023/01/19 09:36:51;;;;;;;12.93;6.00;;;4.60;99.90;;;;;;4939984;28;20829;-88
2023/01/19 09:39:17;;;;;;;10.70;5.22;;;4.50;99.90;;;;;;4945164;28;20520;-88
2023/01/19 09:41:49;;;;;;;13.13;4.70;;;4.50;99.90;;;;;;4931236;28;20512;-88
2023/01/19 09:44:27;;;;;;;11.48;5.20;;;4.50;99.90;;;;;;4955639;28;20475;-88
2023/01/19 09:46:53;;;;;;;12.03;5.40;;;4.50;99.90;;;;;;4966710;28;20018;-87
2023/01/19 09:49:47;;;;;;;10.73;4.85;;;4.50;99.90;;;;;;4969878;28;20054;-87
2023/01/19 09:52:14;;;;;;;9.80;4.72;;;4.50;99.90;;;;;;4941307;28;20042;-87
2023/01/19 09:54:52;;;;;;;11.30;4.83;;;4.50;99.90;;;;;;4936101;28;20030;-87
2023/01/19 09:57:19;;;;;;;10.40;4.70;;;4.60;99.90;;;;;;4945400;28;20025;-87
2023/01/19 09:59:49;;;;;;;9.40;5.00;;;4.70;99.90;;;;;;4936011;28;20022;-88
2023/01/19 10:02:43;;;;;;;12.95;5.93;;;4.70;99.90;;;;;;4964618;28;20031;-87
2023/01/19 10:05:20;;;;;;;11.50;4.97;;;4.80;99.90;;;;;;4965943;28;20023;-87
2023/01/19 10:08:10;;;;;;;12.03;5.30;;;4.90;99.90;;;;;;4917567;28;23252;-88
2023/01/19 10:10:41;;;;;;;12.25;5.55;;;4.90;99.90;;;;;;4951087;28;20303;-88
2023/01/19 10:13:48;;;;;;;12.30;5.80;;;5.00;99.90;;;;;;4926832;28;20030;-87
2023/01/19 10:16:27;;;;;;;15.25;6.43;;;5.00;99.90;;;;;;4910065;29;20027;-87
2023/01/19 10:18:57;;;;;;;15.10;7.07;;;5.10;99.90;;;;;;4964098;28;20281;-87
2023/01/19 10:21:30;;;;;;;16.50;7.10;;;5.10;99.90;;;;;;4940120;28;20390;-88
2023/01/19 10:23:58;;;;;;;18.02;6.88;;;5.10;99.90;;;;;;4939624;28;20276;-87
2023/01/19 10:26:43;;;;;;;13.90;6.10;;;5.10;99.90;;;;;;4932490;28;20039;-87
2023/01/19 10:29:36;;;;;;;16.90;6.75;;;5.20;99.90;;;;;;4949181;28;20598;-88
2023/01/19 10:32:08;;;;;;;13.52;6.00;;;5.20;99.90;;;;;;4953520;28;20023;-87
2023/01/19 10:34:34;;;;;;;15.67;6.77;;;5.20;99.90;;;;;;4951010;28;20045;-87
2023/01/19 10:37:14;;;;;;;14.98;6.47;;;5.20;99.90;;;;;;4960847;28;20126;-87
2023/01/19 10:39:41;;;;;;;15.63;6.53;;;5.30;99.90;;;;;;4928779;28;20165;-87
2023/01/19 10:42:11;;;;;;;13.77;5.57;;;5.30;99.90;;;;;;4938536;28;20018;-87
2023/01/19 10:44:37;;;;;;;12.85;5.70;;;5.30;99.90;;;;;;4906232;28;20681;-87
2023/01/19 10:47:10;;;;;;;15.20;6.17;;;5.30;99.90;;;;;;4941841;28;20030;-87
2023/01/19 10:49:41;;;;;;;13.32;6.07;;;5.30;99.90;;;;;;4951722;28;21308;-87
2023/01/19 10:52:28;;;;;;;14.20;6.03;;;5.30;99.90;;;;;;4938064;28;20054;-87
2023/01/19 10:54:54;;;;;;;14.60;6.20;;;5.30;99.90;;;;;;4920700;28;20165;-87
2023/01/19 10:57:35;;;;;;;13.20;5.97;;;5.30;99.90;;;;;;4969248;28;20401;-87
2023/01/19 11:00:02;;;;;;;15.13;5.82;;;5.30;99.90;;;;;;4949415;28;20034;-87
2023/01/19 11:02:29;;;;;;;14.50;6.25;;;5.30;99.90;;;;;;4937366;28;20117;-87
2023/01/19 11:05:19;;;;;;;14.73;6.35;;;5.30;99.90;;;;;;4949404;28;20100;-87
2023/01/19 11:07:44;;;;;;;13.10;5.55;;;5.40;99.90;;;;;;4967177;28;20038;-87
2023/01/19 11:10:16;;;;;;;12.00;4.93;;;5.40;99.90;;;;;;4938381;28;20387;-87
2023/01/19 11:13:06;;;;;;;14.63;6.13;;;5.40;99.90;;;;;;4937992;28;20042;-87
2023/01/19 11:15:39;;;;;;;14.75;6.60;;;5.40;99.90;;;;;;4930458;28;20109;-87
2023/01/19 11:18:06;;;;;;;13.30;5.88;;;5.40;99.90;;;;;;4943572;28;20022;-87
2023/01/19 11:20:51;;;;;;;14.27;5.97;;;5.30;99.90;;;;;;4958901;28;20030;-86
2023/01/19 11:23:27;;;;;;;13.10;5.18;;;5.30;99.90;;;;;;4954409;28;20604;-86
2023/01/19 11:25:57;;;;;;;12.70;5.00;;;5.30;99.90;;;;;;4925096;28;20553;-87
2023/01/19 11:28:30;;;;;;;12.10;5.40;;;5.40;99.90;;;;;;4967786;28;20023;-87
2023/01/19 11:31:00;;;;;;;14.77;5.03;;;5.40;99.90;;;;;;4932674;28;20812;-87
2023/01/19 11:33:57;;;;;;;13.47;5.73;;;5.40;99.90;;;;;;4977016;28;20023;-87
2023/01/19 11:36:25;;;;;;;12.77;5.53;;;5.50;99.90;;;;;;4950450;28;20457;-87
2023/01/19 11:38:57;;;;;;;12.82;4.95;;;5.50;99.90;;;;;;4968621;28;20061;-86
2023/01/19 11:41:35;;;;;;;10.60;4.47;;;5.50;99.90;;;;;;4929921;28;20026;-87
2023/01/19 11:44:19;;;;;;;12.15;4.80;;;5.50;99.90;;;;;;4957524;28;20041;-87
2023/01/19 11:46:52;;;;;;;11.33;4.90;;;5.50;99.90;;;;;;4929411;28;20735;-87
2023/01/19 11:49:45;;;;;;;12.00;4.72;;;5.60;99.90;;;;;;4939603;28;20057;-87
2023/01/19 11:52:23;;;;;;;13.48;5.28;;;5.60;99.90;;;;;;4969365;28;20060;-87
2023/01/19 11:54:54;;;;;;;11.65;4.70;;;5.60;99.90;;;;;;4935866;28;20124;-87
2023/01/19 11:57:20;;;;;;;15.60;5.78;;;5.70;99.90;;;;;;4924444;28;20097;-88
2023/01/19 11:59:47;;;;;;;13.73;5.03;;;5.70;99.90;;;;;;4951794;28;20708;-87
2023/01/19 12:02:28;;;;;;;11.00;4.80;;;5.70;99.90;;;;;;4928395;28;20038;-87
2023/01/19 12:04:59;;;;;;;15.30;5.85;;;5.70;99.90;;;;;;4969902;28;20379;-90
2023/01/19 12:07:29;;;;;;;13.55;5.90;;;5.70;99.90;;;;;;4954156;28;20050;-90
2023/01/19 12:10:17;;;;;;;12.90;5.60;;;5.70;99.90;;;;;;4953627;28;20469;-87
2023/01/19 12:12:42;;;;;;;10.55;4.78;;;5.70;99.90;;;;;;4917988;28;20244;-87
2023/01/19 12:15:40;;;;;;;13.95;5.78;;;5.70;99.90;;;;;;4953871;28;20824;-87
2023/01/19 12:18:11;;;;;;;11.50;4.70;;;5.80;99.90;;;;;;4931827;28;20026;-87
2023/01/19 12:20:48;;;;;;;13.77;5.07;;;5.80;99.90;;;;;;4954390;28;20022;-87
2023/01/19 12:23:47;;;;;;;15.13;5.50;;;5.80;99.90;;;;;;4965809;28;20644;-87
2023/01/19 12:26:37;;;;;;;10.45;4.75;;;5.80;99.90;;;;;;4964068;28;20353;-87
2023/01/19 12:29:14;;;;;;;12.55;4.95;;;5.80;99.90;;;;;;4938978;28;20090;-87
2023/01/19 12:31:41;;;;;;;12.10;4.65;;;5.80;99.90;;;;;;4973666;28;20150;-87
2023/01/19 12:34:41;;;;;;;11.30;4.87;;;5.80;99.90;;;;;;4913053;28;20145;-87
2023/01/19 12:37:29;;;;;;;10.38;4.88;;;5.80;99.90;;;;;;4965612;28;20030;-87
2023/01/19 12:40:21;;;;;;;10.73;4.50;;;5.80;99.90;;;;;;4974936;28;20538;-88
2023/01/19 12:43:00;;;;;;;11.45;4.97;;;5.80;99.90;;;;;;4936675;28;20077;-87
2023/01/19 12:45:34;;;;;;;12.70;5.03;;;5.80;99.90;;;;;;4945312;28;21372;-87
2023/01/19 12:48:02;;;;;;;10.33;5.10;;;5.80;99.90;;;;;;4968759;28;20077;-87
2023/01/19 12:50:34;;;;;;;13.57;4.88;;;5.80;99.90;;;;;;4921199;28;20407;-87
2023/01/19 12:53:02;;;;;;;15.35;5.65;;;5.80;99.90;;;;;;4957371;28;20026;-87
2023/01/19 12:55:37;;;;;;;11.85;4.97;;;5.80;99.90;;;;;;4957299;28;20209;-87
2023/01/19 12:58:17;;;;;;;11.63;4.97;;;5.80;99.90;;;;;;4958075;28;20041;-87
2023/01/19 13:00:45;;;;;;;9.50;4.20;;;5.80;99.90;;;;;;4921437;28;20492;-87
2023/01/19 13:03:17;;;;;;;12.40;4.93;;;5.80;99.90;;;;;;4939366;28;20037;-87
2023/01/19 13:05:43;;;;;;;12.05;4.95;;;5.80;99.90;;;;;;4942217;28;20504;-87
2023/01/19 13:08:08;;;;;;;11.30;4.43;;;5.80;99.90;;;;;;4977558;28;20029;-87
2023/01/19 13:11:04;;;;;;;12.68;5.07;;;5.90;99.90;;;;;;4955880;28;20114;-87
2023/01/19 13:13:37;;;;;;;14.00;5.90;;;5.90;99.90;;;;;;4955306;28;20038;-87